LFJL METAR and TAF | Updated Today

LFJL METAR

Metz-Nancy-Lorraine Airport

Observation time: 11 min. ago

LFJL 252000Z AUTO 26007KT CAVOK 16/08 Q1021 NOSIG

Need help? Read our tutorial on how to read METARs or read the parsed version below.

Metz-Nancy-Lorraine Airport (LFJL) METAR

  • Weather conditions on Wed, 25 May 2022 20:00:00 +0000 (11 min. ago):
  • Present conditions: Dry
  • Clouds: Clear skies
  • Visibility: Greater than 10 km
  • Wind: 260 degrees at 7 knots
  • Temperature: 16 celsius
  • Dew point: 8 celsius
  • Pressure: 1021 millibars
  • Remarks: None


Useful to know...

LFJL TAF

Metz-Nancy-Lorraine Airport

TAF LFJL 251700Z 2518/2618 25008KT CAVOK BECMG 2604/2607 BKN035
Observation time: 3:11 hr. ago
Need help? Read our tutorial on how to read TAFs or read the parsed version below.

Parsed version of TAF for Metz-Nancy-Lorraine Airport (LFJL)

  • From 25 May at 18:00 UTC, to day 26 of the month at 18:00 UTC
  • Visibility: Greater than 10 km
  • Wind: 250 degrees at 8
  • Expected to arise soon, from 26 May at 04:00 UTC, to day 26 of the month at 07:00 UTC
  • Clouds: Broken sky at 1067 meters